Date,TemperatureHighF,TemperatureAvgF,TemperatureLowF,DewpointHighF,DewpointAvgF,DewpointLowF,HumidityHigh,HumidityAvg,HumidityLow,PressureMaxIn,PressureMinIn,WindSpeedMaxMPH,WindSpeedAvgMPH,GustSpeedMaxMPH,PrecipitationSumIn
2014-1-1,20,18,16,17,15,14,92,90,87,30.44,30.22,7,2,8,0.00
2014-1-2,18,14,8,16,12,6,91,90,89,30.22,29.92,21,4,24,0.00
2014-1-3,14,9,6,10,5,2,89,84,74,30.50,30.16,16,2,16,0.00
2014-1-4,32,21,8,17,10,4,82,63,43,30.38,30.13,16,4,22,0.00
2014-1-5,40,32,28,39,24,17,96,73,56,30.18,29.34,11,2,13,0.00
2014-1-6,41,8,-14,40,4,-19,97,86,78,30.20,29.32,25,8,26,0.00
2014-1-7,2,-6,-14,-5,-12,-19,79,73,63,30.51,30.20,20,7,24,0.00
2014-1-8,19,11,0,14,5,-5,87,78,65,30.59,30.49,12,2,12,0.00
2014-1-9,26,19,6,25,14,3,94,84,68,30.69,30.44,10,2,11,0.00
2014-1-10,41,33,26,40,32,25,98,96,94,30.44,29.86,13,3,15,0.00
2014-1-11,49,42,32,48,40,28,98,93,78,29.86,29.33,22,6,27,0.00
2014-1-12,37,32,31,30,28,28,92,85,73,30.05,29.68,16,5,22,0.00
2014-1-13,49,41,32,43,35,29,96,79,62,29.95,29.71,14,4,18,0.00
2014-1-14,43,37,32,42,31,25,95,80,60,29.85,29.70,11,3,12,0.00
2014-1-15,38,27,22,31,20,15,89,74,59,30.07,29.80,18,5,21,0.00
2014-1-16,28,24,18,23,17,12,90,76,59,30.04,29.82,17,4,18,0.00
2014-1-17,37,29,15,30,24,11,93,82,68,29.98,29.79,16,4,17,0.01
2014-1-18,20,14,8,13,8,2,88,77,67,30.05,29.92,15,4,17,0.00
2014-1-19,32,23,15,23,18,13,91,80,63,29.92,29.68,20,5,30,0.00
2014-1-20,34,26,14,28,20,12,89,79,73,30.04,29.62,19,4,20,0.00
2014-1-21,14,8,0,12,2,-6,89,76,54,30.22,30.01,18,3,22,0.00
2014-1-22,10,4,-5,4,-2,-9,87,78,65,30.21,30.10,8,1,11,0.00
2014-1-23,11,8,5,7,4,2,89,87,82,30.53,30.09,14,3,17,0.00
2014-1-24,15,6,-4,4,0,-7,88,74,58,30.55,29.80,23,5,27,0.00
2014-1-25,26,16,7,23,13,4,93,89,60,29.81,29.37,23,6,24,0.00
2014-1-26,30,13,-2,26,9,-5,89,86,83,29.86,29.53,16,3,16,0.00
2014-1-27,35,12,0,30,7,-4,93,81,57,30.35,29.44,25,7,33,0.00
2014-1-28,8,-1,-11,-3,-9,-15,83,71,54,30.52,30.35,13,3,15,0.00
2014-1-29,16,6,-4,1,-4,-12,78,63,46,30.38,30.27,22,6,22,0.00
2014-1-30,29,17,3,9,3,-3,78,56,38,30.38,29.96,18,5,24,0.00
2014-1-31,36,30,27,26,19,9,90,64,43,30.23,30.02,13,3,19,0.00
2014-2-1,42,34,27,40,31,24,95,90,74,30.21,29.91,13,3,18,0.00
2014-2-2,39,26,20,37,24,17,96,94,91,30.29,29.94,11,2,14,0.00
2014-2-3,23,17,9,19,14,7,93,85,74,30.47,30.26,10,1,12,0.00
2014-2-4,25,16,6,19,12,4,93,85,69,30.55,30.17,10,2,10,0.00
2014-2-5,22,20,12,20,18,9,94,92,88,30.37,29.75,17,4,20,0.00
2014-2-6,20,12,3,14,8,0,90,84,74,30.46,30.35,13,3,18,0.00
2014-2-7,15,5,-4,1,-3,-7,84,69,49,30.47,30.40,15,4,16,0.00
2014-2-8,20,10,-1,10,2,-6,88,69,49,30.45,30.28,7,2,10,0.00
2014-2-9,22,16,12,19,13,9,91,88,81,30.28,30.04,19,2,20,0.00
2014-2-10,18,13,4,13,9,1,90,83,69,30.43,30.23,10,2,10,0.00
2014-2-11,16,9,0,10,5,-3,90,85,70,30.58,30.43,8,1,10,0.00
2014-2-12,26,13,-2,9,4,-5,90,69,43,30.57,30.19,11,2,12,0.00
2014-2-13,33,19,10,16,10,4,81,67,44,30.20,29.62,10,2,10,0.00
2014-2-14,27,24,20,25,19,14,93,82,65,29.83,29.52,15,4,20,0.00
2014-2-15,20,16,4,17,12,1,92,85,71,30.16,29.81,12,3,15,0.00
2014-2-16,24,12,4,19,9,1,91,87,80,30.44,30.07,10,2,11,0.00
2014-2-17,28,14,-3,25,6,-6,94,74,46,30.51,29.79,25,5,25,0.00
2014-2-18,35,29,21,29,25,19,95,85,66,30.11,29.78,23,6,26,0.00
2014-2-19,46,38,30,34,30,25,91,74,55,30.14,29.70,19,4,23,0.00
2014-2-20,48,34,23,43,32,21,96,92,81,30.15,29.65,13,3,16,0.00
2014-2-21,51,40,35,49,31,18,96,72,48,29.91,29.55,27,8,29,0.00
2014-2-22,42,37,32,32,24,16,91,60,37,30.05,29.86,28,7,28,0.00
2014-2-23,35,31,23,32,23,12,94,74,43,30.10,30.02,15,5,17,0.00
2014-2-24,23,21,19,17,14,12,89,76,61,30.22,30.07,20,6,20,0.00
2014-2-25,22,17,11,16,12,7,90,81,63,30.22,30.04,17,4,17,0.00
2014-2-26,17,11,7,13,4,0,89,74,53,30.18,29.79,15,4,18,0.00
2014-2-27,14,9,-4,12,3,-8,90,78,61,30.28,29.65,20,5,24,0.00
2014-2-28,19,7,-9,2,-4,-13,85,63,41,30.48,30.26,11,2,12,0.00
2014-3-1,42,27,15,24,13,2,91,58,36,30.26,30.15,10,3,14,0.00
2014-3-2,18,12,5,15,6,-1,89,78,56,30.37,30.24,9,2,13,0.00
2014-3-3,10,3,-7,0,-4,-11,84,73,58,30.54,30.35,10,2,13,0.00
2014-3-4,27,10,-7,9,-1,-11,86,62,28,30.53,30.31,7,1,9,0.00
2014-3-5,22,16,12,12,7,4,80,68,57,30.57,30.32,14,3,15,0.00
2014-3-6,33,21,10,16,9,1,80,60,45,30.56,30.27,15,4,19,0.00
2014-3-7,50,34,22,33,24,15,85,66,51,30.27,29.97,11,3,12,0.00
2014-3-8,39,30,19,32,26,16,94,87,74,30.17,29.95,11,3,12,0.00
2014-3-9,36,26,14,25,18,12,92,74,46,30.29,29.96,13,4,17,0.00
2014-3-10,53,44,35,40,33,25,73,66,57,29.96,29.63,17,5,19,0.00
2014-3-11,56,45,39,41,39,35,91,78,54,29.75,29.67,15,3,18,0.00
2014-3-12,39,27,7,36,26,4,96,94,87,29.94,29.32,21,6,30,0.00
2014-3-13,22,13,5,11,6,2,88,73,50,30.22,29.93,17,3,17,0.00
2014-3-14,56,41,22,40,26,12,77,58,41,30.17,29.70,24,6,32,0.00
2014-3-15,47,35,26,36,28,20,86,76,65,30.25,29.74,18,6,22,0.00
2014-3-16,26,18,13,20,11,7,81,74,63,30.42,30.23,14,4,17,0.00
2014-3-17,37,21,9,20,11,3,83,66,35,30.23,29.99,13,3,14,0.00
2014-3-18,49,35,22,34,26,17,83,71,55,30.13,30.01,16,3,19,0.00
2014-3-19,46,41,35,45,37,27,95,85,69,30.01,29.72,24,6,32,0.00
2014-3-20,37,33,30,33,27,23,90,78,63,30.09,29.84,23,7,26,0.00
2014-3-21,41,34,23,32,26,21,92,74,54,30.17,29.86,15,2,15,0.00
2014-3-22,46,36,33,37,30,27,91,81,66,30.17,29.70,20,5,30,0.00
2014-3-23,33,20,16,28,14,9,88,78,63,30.42,30.17,12,4,17,0.00
2014-3-24,27,20,15,19,13,9,85,73,51,30.42,30.17,12,3,15,0.00
2014-3-25,34,23,14,24,15,10,92,74,40,30.17,29.96,17,3,19,0.00
2014-3-26,23,17,9,18,9,6,91,72,53,30.40,30.12,15,3,16,0.00
2014-3-27,42,28,17,31,16,7,74,62,47,30.39,30.02,14,4,17,0.00
2014-4-29,50,50,49,45,45,44,83,83,83,29.97,28.60,18,9,24,0.00
2014-4-30,54,50,46,53,48,44,98,95,83,29.99,29.78,16,4,19,0.01
2014-5-1,55,51,46,54,43,37,98,73,54,29.87,29.79,16,5,18,0.01
2014-5-2,53,49,44,43,41,38,84,74,63,29.88,29.79,16,5,17,0.01
2014-5-3,57,50,44,48,42,36,89,76,57,29.87,29.71,25,4,25,0.02
2014-5-4,57,48,36,41,37,34,92,67,45,30.12,29.84,22,4,26,0.00
2014-5-5,54,45,35,41,36,33,94,73,47,30.13,29.99,8,1,13,0.00
2014-5-6,58,49,38,41,36,31,87,62,42,30.12,30.01,13,2,13,0.00
2014-5-7,68,54,43,53,43,34,91,67,55,30.16,30.02,15,3,16,0.01
2014-5-8,83,70,55,63,56,47,79,62,49,30.06,29.94,17,3,18,0.00
2014-5-9,80,70,59,64,59,54,90,68,49,30.00,29.78,16,4,22,0.01
2014-5-10,66,60,53,56,48,33,94,67,33,30.00,29.84,13,3,20,0.01
2014-5-11,76,64,50,55,48,39,93,60,28,30.14,30.00,11,2,11,0.00
2014-5-12,76,66,61,66,62,55,97,86,63,30.09,30.00,12,2,15,0.01
2014-5-13,86,72,60,70,63,59,96,77,48,30.06,29.96,15,3,18,0.01
2014-5-14,79,65,59,67,62,56,97,91,63,30.09,29.94,23,2,24,0.00
2014-5-15,65,60,48,63,58,44,98,92,80,29.98,29.78,16,4,20,0.00
2014-5-16,50,45,40,44,39,35,90,80,68,30.06,29.94,11,2,12,0.00
2014-5-17,50,43,35,44,39,34,96,86,60,30.26,30.04,10,1,11,0.00
2014-5-18,61,49,37,42,36,30,94,63,32,30.35,30.25,10,2,11,0.00
2014-5-19,66,56,42,43,38,32,80,53,36,30.35,30.22,10,2,13,0.00
2014-5-20,70,59,50,60,48,37,86,67,52,30.24,29.93,10,2,12,0.01
2014-5-21,75,68,62,65,62,59,96,83,68,29.95,29.79,10,2,13,0.22
2014-5-22,64,60,51,60,54,49,95,82,65,30.03,29.81,15,3,16,0.00
2014-5-23,54,51,46,50,47,44,96,86,72,30.18,30.01,14,2,14,0.00
2014-5-24,71,58,46,53,48,45,96,72,42,30.23,30.15,13,2,14,0.01
2014-5-25,76,63,48,53,48,44,88,62,37,30.21,30.12,10,2,11,0.00
2014-5-26,82,70,55,60,54,47,78,58,42,30.12,29.96,10,2,12,0.00
2014-5-27,80,72,66,67,64,58,91,77,62,29.96,29.85,13,2,15,0.02
2014-5-28,74,67,58,65,61,52,97,82,59,30.06,29.88,8,1,10,0.00
2014-5-29,66,60,53,57,53,51,96,80,65,30.16,30.04,13,2,16,0.00
2014-5-30,74,62,51,58,53,50,97,76,47,30.22,30.13,8,1,11,0.01
2014-5-31,75,64,50,59,49,40,91,62,35,30.27,30.19,13,1,13,0.00
2014-6-1,82,68,53,62,54,44,77,62,45,30.24,30.06,13,2,14,0.00
2014-6-2,79,72,64,70,66,61,92,80,69,30.09,29.93,14,3,14,0.00
2014-6-3,81,72,62,69,62,52,96,73,44,29.93,29.82,19,3,19,0.18
2014-6-4,68,60,52,59,55,50,96,83,61,29.94,29.80,7,1,8,0.20
2014-6-5,66,58,50,55,50,44,96,76,47,29.98,29.80,16,2,17,0.01
2014-6-6,72,59,44,54,48,40,97,71,33,30.06,29.96,8,1,10,0.00
2014-6-7,78,64,48,55,50,44,91,64,39,30.12,29.94,11,1,13,0.00
2014-6-8,64,59,55,62,55,49,97,88,71,29.96,29.79,12,1,13,0.69
2014-6-9,72,63,55,62,58,54,97,83,62,30.00,29.92,9,1,10,0.00
2014-6-10,72,65,55,66,61,54,98,89,75,29.97,29.91,7,1,7,0.00
2014-6-11,76,68,63,68,65,62,97,88,72,29.91,29.76,12,3,16,0.01
2014-6-12,77,68,63,70,64,61,97,87,69,29.81,29.76,12,2,13,0.04
2014-6-13,68,64,55,65,58,47,95,83,63,29.99,29.75,15,3,16,0.01
2014-6-14,65,57,48,51,48,45,94,73,55,30.16,29.99,14,2,15,0.00
2014-6-15,79,62,45,56,50,44,97,68,34,30.21,30.06,11,2,13,0.00
2014-6-16,85,74,64,70,63,51,91,68,51,30.09,30.01,11,2,13,0.00
2014-6-17,86,77,65,73,68,63,97,77,54,30.06,29.82,21,4,21,0.13
2014-6-18,86,71,64,74,67,63,97,90,64,30.09,29.92,17,1,19,2.33
2014-6-19,75,68,58,68,63,52,99,86,68,30.13,29.98,9,1,14,0.26
2014-6-20,74,63,51,63,54,47,91,73,49,30.12,29.94,13,1,13,0.01
2014-6-21,74,64,56,64,57,48,97,79,45,29.96,29.91,8,1,10,0.09
2014-6-22,79,66,56,64,56,49,94,72,38,29.99,29.94,9,1,10,0.00
2014-6-23,83,68,58,71,63,53,97,83,65,29.99,29.91,18,2,18,1.41
2014-6-24,83,72,66,72,68,65,98,88,67,29.96,29.86,14,2,17,1.11
2014-6-25,73,68,63,69,66,62,98,94,82,29.97,29.86,10,2,10,0.79
2014-6-26,76,67,61,66,63,60,98,87,70,30.07,29.96,9,2,10,0.00
2014-6-27,80,69,57,70,63,56,99,83,56,30.14,30.06,7,1,8,0.00
2014-6-28,86,74,63,71,66,62,98,78,49,30.18,30.08,8,1,10,0.01
2014-6-29,84,74,69,74,70,66,96,86,68,30.12,29.97,14,2,17,0.03
2014-6-30,84,76,67,73,70,66,98,84,65,30.00,29.83,12,2,15,0.01
2014-7-1,86,78,71,74,71,67,96,79,57,29.84,29.64,17,3,18,0.01
2014-7-2,82,73,65,70,67,64,96,81,56,29.94,29.75,12,2,13,0.13
2014-7-3,71,65,59,65,62,55,97,89,70,30.11,29.91,15,2,16,0.01
2014-7-4,68,63,52,57,52,46,96,69,45,30.30,30.17,11,2,14,0.00
2014-7-5,74,63,50,60,54,48,94,76,53,30.34,30.15,9,1,10,0.00
2014-7-6,77,67,58,63,57,51,89,70,53,30.16,29.85,14,2,14,0.00
2014-7-7,80,72,65,71,66,60,96,80,71,29.86,29.70,18,4,19,1.40
2014-7-8,76,70,64,70,66,60,97,90,73,29.78,29.57,21,3,21,1.23
2014-7-9,74,67,58,66,61,56,98,84,58,30.03,29.78,14,2,17,0.14
2014-7-10,76,65,54,64,58,53,98,78,56,30.18,30.03,10,1,11,0.00
2014-7-11,78,68,56,66,59,54,95,76,56,30.24,30.16,8,1,9,0.00
2014-7-12,83,72,59,67,62,53,92,71,54,30.20,29.98,9,1,11,0.00
2014-7-13,79,73,66,73,67,63,95,83,60,29.99,29.83,18,3,18,0.50
2014-7-14,80,71,63,70,65,57,97,83,50,29.89,29.76,9,1,12,0.01
2014-7-15,71,67,60,64,59,52,96,78,56,29.86,29.69,18,2,18,0.08
2014-7-16,65,59,53,59,54,51,96,84,69,30.02,29.85,15,2,16,0.39
2014-7-17,71,61,52,59,53,44,94,77,41,30.19,30.02,10,1,11,0.00
2014-7-18,74,64,50,60,53,46,91,71,46,30.27,30.18,8,1,11,0.00
2014-7-19,69,64,60,66,62,58,98,94,84,30.18,30.06,9,2,11,0.58
2014-7-20,75,68,62,68,64,61,97,89,71,30.11,30.05,9,1,10,0.00
2014-7-21,82,70,59,68,63,58,98,81,55,30.16,30.07,7,1,8,0.01
2014-7-22,86,76,62,73,68,60,97,77,56,30.13,29.96,9,1,10,0.00
2014-7-23,74,68,61,70,65,58,95,90,85,30.03,29.88,10,2,11,0.01
2014-7-24,69,62,53,60,55,51,97,80,57,30.09,30.01,13,1,13,0.00
2014-7-25,74,62,49,61,55,48,98,79,52,30.14,30.00,8,1,9,0.01
2014-7-26,81,68,59,66,62,56,96,81,58,30.02,29.81,10,1,13,0.17
2014-7-27,81,70,61,71,66,60,97,89,68,29.81,29.57,12,2,17,1.75
2014-7-28,63,60,54,62,57,48,98,91,77,29.97,29.61,14,3,17,0.37
2014-7-29,67,59,54,55,52,48,90,78,61,30.03,29.94,11,1,11,0.00
2014-7-30,71,63,55,61,57,52,93,80,62,30.03,29.98,11,2,13,0.00
2014-7-31,76,66,58,62,56,49,97,75,43,30.09,29.99,9,2,12,0.01
2014-8-1,82,71,62,67,62,56,88,73,50,30.14,30.07,6,1,8,0.00
2014-8-2,76,65,61,68,62,59,97,90,73,30.13,30.05,12,1,14,0.32
2014-8-3,76,67,60,67,63,59,98,88,68,30.13,30.07,12,1,12,0.00
2014-8-4,81,69,57,67,62,56,98,79,48,30.13,30.06,8,1,8,0.01
2014-8-5,78,66,61,69,63,59,97,90,71,30.08,30.01,20,1,20,0.41
2014-8-6,74,67,59,67,61,56,98,83,56,30.05,29.99,10,1,11,0.00
2014-8-7,74,65,55,61,57,54,97,78,56,30.12,30.04,10,1,10,0.00
2014-8-8,74,64,54,63,57,53,98,82,58,30.17,30.11,8,1,10,0.01
2014-8-9,79,65,53,67,59,52,98,81,58,30.14,30.08,10,1,13,0.00
2014-8-10,81,69,59,68,63,57,97,82,57,30.12,30.01,9,2,10,0.00
2014-8-11,71,66,64,66,64,62,97,94,82,30.03,29.77,17,4,24,0.36
2014-8-12,76,68,62,69,66,61,98,92,74,29.79,29.69,12,2,14,0.94
2014-8-13,68,62,54,63,57,51,97,85,56,29.97,29.78,16,3,18,0.15
2014-8-14,64,58,53,56,51,46,96,79,57,30.01,29.92,14,2,16,0.00
2014-8-15,67,57,47,54,49,43,97,76,53,30.07,29.99,10,1,11,0.00
2014-8-16,76,65,53,64,52,43,87,65,41,30.03,29.89,12,2,15,0.00
2014-8-17,75,67,57,65,61,55,97,83,56,30.01,29.90,9,1,9,0.80
2014-8-18,76,65,56,66,59,54,95,81,58,29.98,29.86,8,1,10,0.00
2014-8-19,82,68,54,69,62,53,98,81,58,29.88,29.80,17,1,17,0.76
2014-8-20,80,69,63,72,66,62,98,92,72,29.97,29.82,11,2,13,0.50
2014-8-21,81,72,65,73,68,64,97,88,70,30.01,29.95,6,1,10,0.01
2014-8-22,82,72,67,73,69,66,98,91,73,29.99,29.93,6,1,7,0.71
2014-8-23,76,68,64,70,66,63,98,91,76,30.06,29.96,10,1,10,0.00
2014-8-24,76,69,62,68,65,61,97,88,74,30.13,30.05,10,2,13,0.00
2014-8-25,80,69,60,70,64,59,96,86,69,30.16,30.08,9,2,11,0.01
2014-8-26,85,73,62,73,67,60,93,81,65,30.14,30.00,9,1,10,0.00
2014-8-27,75,69,61,70,66,57,98,88,74,30.09,30.03,8,1,13,0.00
2014-8-28,68,60,51,57,53,49,95,80,61,30.18,30.07,10,1,10,0.00
2014-8-29,75,62,48,60,54,47,97,78,51,30.20,30.09,11,2,13,0.01
2014-8-30,86,73,59,72,64,56,90,75,54,30.11,29.94,13,2,16,0.00
2014-8-31,76,72,68,71,68,66,97,89,73,29.99,29.96,11,2,11,0.10
2014-9-1,81,74,68,72,70,68,98,88,71,29.98,29.83,11,2,16,0.01
2014-9-2,74,70,64,71,68,63,97,91,81,29.96,29.85,13,2,13,0.65
2014-9-3,81,69,61,69,63,60,98,82,52,30.09,29.96,6,1,8,0.01
2014-9-4,84,73,62,68,64,60,95,74,50,30.12,30.04,10,1,10,0.00
2014-9-5,86,77,68,74,69,64,92,77,64,30.09,29.91,13,2,16,0.08
2014-9-6,67,63,54,66,61,50,98,92,80,30.14,29.91,8,1,13,0.53
2014-9-7,72,59,50,61,53,48,98,82,50,30.24,30.14,8,1,13,0.01
2014-9-8,74,62,49,63,54,47,96,79,53,30.25,30.11,15,2,17,0.00
2014-9-9,74,66,59,66,61,56,96,86,74,30.14,30.02,12,2,12,0.00
2014-9-10,77,69,61,71,66,60,97,92,80,30.03,29.66,15,3,16,1.32
2014-9-11,72,60,53,70,58,51,96,93,91,30.17,29.67,16,3,19,0.30
2014-9-12,58,54,51,54,51,48,97,92,77,30.28,30.17,6,1,8,0.05
2014-9-13,58,52,44,54,49,43,97,90,76,30.36,30.09,15,2,17,0.07
2014-9-14,60,50,42,51,46,41,98,86,62,30.39,30.26,9,1,9,0.01
2014-9-15,64,54,44,56,50,43,97,88,64,30.27,30.08,10,1,13,0.25